Time;durP1;ratioP1;P1;durP2;ratioP2;P2;SDS_P1;SDS_P2;PMS_P1;PMS_P2;Temp;Humidity;BMP_temperature;BMP_pressure;BME280_temperature;BME280_humidity;BME280_pressure;Samples;Min_cycle;Max_cycle;Signal;HPM_P1;HPM_P2
2023/10/17 00:02:07;;;;;;;2.37;2.23;;;23.10;61.20;;;;;;5045098;28;21129;-72
2023/10/17 00:04:35;;;;;;;1.73;1.57;;;23.10;61.20;;;;;;5034587;28;20474;-73
2023/10/17 00:07:05;;;;;;;3.20;2.77;;;23.00;61.20;;;;;;5038395;28;20466;-72
2023/10/17 00:09:36;;;;;;;2.53;2.33;;;23.00;61.20;;;;;;5040430;28;20467;-70
2023/10/17 00:12:14;;;;;;;2.30;2.20;;;23.00;61.20;;;;;;5042321;28;20459;-72
2023/10/17 00:14:46;;;;;;;2.53;2.13;;;23.00;61.20;;;;;;5046187;28;20462;-71
2023/10/17 00:17:15;;;;;;;2.37;2.13;;;23.00;61.20;;;;;;5046582;28;20487;-73
2023/10/17 00:19:45;;;;;;;3.40;2.43;;;23.00;61.20;;;;;;5045235;28;20466;-72
2023/10/17 00:22:18;;;;;;;2.63;2.43;;;23.00;61.20;;;;;;5043502;28;21514;-71
2023/10/17 00:24:47;;;;;;;2.20;1.77;;;23.00;61.20;;;;;;5037859;28;20490;-71
2023/10/17 00:27:16;;;;;;;3.63;2.50;;;23.00;61.20;;;;;;5045779;28;20450;-72
2023/10/17 00:29:45;;;;;;;4.00;2.20;;;23.00;61.10;;;;;;5045708;28;20465;-72
2023/10/17 00:32:14;;;;;;;2.03;1.93;;;23.00;61.20;;;;;;5040371;28;20451;-68
2023/10/17 00:34:43;;;;;;;2.90;2.80;;;23.00;61.20;;;;;;5048243;28;20455;-73
2023/10/17 00:37:11;;;;;;;2.57;2.10;;;23.00;61.20;;;;;;5047682;28;20468;-71
2023/10/17 00:39:41;;;;;;;2.33;2.10;;;23.00;61.20;;;;;;5044939;28;20525;-73
2023/10/17 00:44:55;;;;;;;2.10;1.90;;;23.00;61.20;;;;;;5042373;28;20573;-71
2023/10/17 00:47:25;;;;;;;2.27;2.13;;;23.00;61.20;;;;;;5044314;28;20467;-71
2023/10/17 00:49:55;;;;;;;1.90;1.80;;;23.00;61.20;;;;;;5040557;28;20965;-71
2023/10/17 00:52:29;;;;;;;2.30;2.10;;;23.00;61.20;;;;;;5048449;28;20462;-72
2023/10/17 00:54:59;;;;;;;2.23;1.90;;;23.00;61.20;;;;;;5041781;28;20523;-72
2023/10/17 00:57:27;;;;;;;2.30;2.07;;;23.00;61.20;;;;;;5047526;28;20498;-72
2023/10/17 00:59:57;;;;;;;1.97;1.87;;;23.00;61.20;;;;;;5042885;28;20501;-71
2023/10/17 01:02:29;;;;;;;2.60;2.43;;;23.00;61.10;;;;;;5042400;28;20559;-72
2023/10/17 01:04:59;;;;;;;2.83;2.30;;;23.00;61.10;;;;;;5045314;28;20855;-73
2023/10/17 01:07:29;;;;;;;1.97;1.80;;;23.00;61.10;;;;;;5050592;28;20538;-72
2023/10/17 01:10:10;;;;;;;2.27;2.07;;;23.00;61.10;;;;;;5050239;28;20454;-72
2023/10/17 01:12:50;;;;;;;2.53;2.33;;;22.90;61.10;;;;;;5052474;28;20453;-71
2023/10/17 01:15:22;;;;;;;2.67;1.70;;;22.90;61.20;;;;;;5053324;28;20500;-72
2023/10/17 01:17:54;;;;;;;1.90;1.80;;;22.90;61.20;;;;;;5045118;28;20460;-71
2023/10/17 01:20:23;;;;;;;2.20;2.03;;;22.90;61.20;;;;;;5038644;28;20556;-70
2023/10/17 01:22:55;;;;;;;2.50;1.30;;;22.90;61.20;;;;;;5046572;28;20455;-71
2023/10/17 01:25:26;;;;;;;1.80;1.70;;;22.90;61.20;;;;;;5047206;28;20478;-71
2023/10/17 01:27:57;;;;;;;2.10;1.90;;;22.90;61.20;;;;;;5039623;28;20455;-71
2023/10/17 01:30:29;;;;;;;2.60;1.93;;;22.90;61.20;;;;;;5047090;28;20456;-72
2023/10/17 01:32:59;;;;;;;2.73;1.83;;;22.90;61.20;;;;;;5039278;28;20457;-71
2023/10/17 01:35:27;;;;;;;1.80;1.70;;;22.90;61.20;;;;;;5041371;28;20538;-72
2023/10/17 01:37:56;;;;;;;2.57;2.03;;;22.90;61.20;;;;;;5045538;28;20454;-72
2023/10/17 01:40:26;;;;;;;1.90;1.80;;;22.90;61.20;;;;;;5039539;28;20557;-70
2023/10/17 01:42:57;;;;;;;2.77;2.57;;;22.80;61.20;;;;;;5048031;28;20458;-70
2023/10/17 01:45:29;;;;;;;1.77;1.67;;;22.80;61.20;;;;;;5038807;28;21276;-72
2023/10/17 01:47:58;;;;;;;1.93;1.73;;;22.80;61.20;;;;;;5042655;28;20486;-72
2023/10/17 01:50:27;;;;;;;2.63;2.43;;;22.80;61.20;;;;;;5045836;28;20459;-71
2023/10/17 01:52:59;;;;;;;2.00;1.90;;;22.80;61.20;;;;;;5041002;28;20459;-71
2023/10/17 01:55:29;;;;;;;2.10;1.80;;;22.80;61.20;;;;;;5049697;28;20546;-72
2023/10/17 01:58:01;;;;;;;2.43;2.23;;;22.80;61.30;;;;;;5040850;28;20458;-72
2023/10/17 02:00:37;;;;;;;2.53;2.33;;;22.80;61.30;;;;;;5063587;28;20496;-72
2023/10/17 02:03:07;;;;;;;2.33;2.13;;;22.80;61.30;;;;;;5055012;28;20451;-72
2023/10/17 02:05:36;;;;;;;2.80;2.40;;;22.80;61.30;;;;;;5061310;28;20480;-72
2023/10/17 02:08:06;;;;;;;2.70;2.50;;;22.70;61.30;;;;;;5069827;28;20466;-72
2023/10/17 02:10:36;;;;;;;2.80;2.60;;;22.70;61.30;;;;;;5056851;28;21150;-70
2023/10/17 02:13:06;;;;;;;2.20;2.10;;;22.80;61.30;;;;;;5048126;28;20996;-72
2023/10/17 02:15:37;;;;;;;2.17;1.97;;;22.70;61.30;;;;;;5044777;28;20462;-71
2023/10/17 02:18:12;;;;;;;2.30;2.10;;;22.70;61.30;;;;;;5040211;28;20491;-72
2023/10/17 02:20:51;;;;;;;3.33;2.40;;;22.70;61.40;;;;;;5049382;28;20458;-72
2023/10/17 02:23:25;;;;;;;2.63;2.43;;;22.70;61.40;;;;;;5046968;28;20458;-73
2023/10/17 02:26:00;;;;;;;2.00;1.90;;;22.70;61.40;;;;;;5047837;28;20477;-72
2023/10/17 02:28:44;;;;;;;2.57;2.37;;;22.70;61.40;;;;;;5044533;28;20463;-72
2023/10/17 02:31:14;;;;;;;2.63;2.43;;;22.70;61.40;;;;;;5077750;28;20452;-71
2023/10/17 02:33:43;;;;;;;2.80;2.60;;;22.70;61.40;;;;;;5052260;28;20961;-73
2023/10/17 02:36:13;;;;;;;2.60;2.20;;;22.70;61.40;;;;;;5044985;28;20546;-71
2023/10/17 02:38:41;;;;;;;3.23;2.20;;;22.70;61.40;;;;;;5053696;28;20446;-72
2023/10/17 02:41:13;;;;;;;2.30;2.10;;;22.70;61.40;;;;;;5047551;28;20950;-72
2023/10/17 02:43:42;;;;;;;2.63;2.23;;;22.60;61.40;;;;;;5054141;28;20549;-73
2023/10/17 02:46:12;;;;;;;4.83;2.90;;;22.60;61.40;;;;;;5051043;28;20474;-71
2023/10/17 02:48:45;;;;;;;2.70;2.50;;;22.60;61.40;;;;;;5052251;28;20469;-73
2023/10/17 02:51:34;;;;;;;2.97;2.73;;;22.60;61.50;;;;;;5039679;28;20833;-72
2023/10/17 02:54:05;;;;;;;2.67;2.47;;;22.60;61.50;;;;;;5036657;28;20570;-70
2023/10/17 02:56:38;;;;;;;2.63;2.43;;;22.60;61.50;;;;;;5038587;28;20462;-73
2023/10/17 02:59:07;;;;;;;2.60;2.13;;;22.60;61.50;;;;;;5053254;28;20537;-73
2023/10/17 03:01:37;;;;;;;2.80;2.57;;;22.60;61.50;;;;;;5049663;28;20567;-68
2023/10/17 03:04:10;;;;;;;2.93;2.63;;;22.60;61.50;;;;;;5054346;28;20973;-72
2023/10/17 03:06:39;;;;;;;2.70;2.40;;;22.60;61.50;;;;;;5064543;28;20474;-73
2023/10/17 03:09:32;;;;;;;2.67;2.47;;;22.50;61.50;;;;;;5056987;28;20524;-71
2023/10/17 03:12:09;;;;;;;2.60;2.40;;;22.50;61.50;;;;;;5044794;28;20544;-72
2023/10/17 03:15:17;;;;;;;2.20;2.10;;;22.50;61.50;;;;;;5047473;28;20464;-73
2023/10/17 03:17:28;;;;;;;2.60;2.10;;;22.50;61.50;;;;;;5050893;28;20462;-72
2023/10/17 03:19:59;;;;;;;3.43;2.90;;;22.50;61.50;;;;;;5043578;28;20464;-73
2023/10/17 03:22:27;;;;;;;2.60;2.40;;;22.50;61.50;;;;;;5042988;28;20460;-73
2023/10/17 03:25:02;;;;;;;2.30;2.10;;;22.50;61.50;;;;;;5042454;28;20974;-73
2023/10/17 03:27:36;;;;;;;2.57;2.07;;;22.50;61.50;;;;;;5040032;28;20485;-70
2023/10/17 03:30:08;;;;;;;3.90;2.73;;;22.50;61.50;;;;;;5079256;28;20456;-71
2023/10/17 03:32:43;;;;;;;3.33;2.50;;;22.50;61.50;;;;;;5055101;28;20968;-73
2023/10/17 03:35:20;;;;;;;2.60;2.37;;;22.50;61.50;;;;;;5059826;28;20454;-74
2023/10/17 03:37:49;;;;;;;2.20;2.00;;;22.50;61.50;;;;;;5057111;28;20557;-73
2023/10/17 03:40:29;;;;;;;4.60;2.43;;;22.50;61.50;;;;;;5042380;28;20869;-73
2023/10/17 03:43:11;;;;;;;4.57;2.77;;;22.50;61.50;;;;;;5048903;28;20896;-72
2023/10/17 03:45:52;;;;;;;2.17;2.00;;;22.50;61.50;;;;;;5048239;28;20508;-72
2023/10/17 03:48:21;;;;;;;2.80;2.50;;;22.50;61.50;;;;;;5042135;28;20823;-70
2023/10/17 03:50:58;;;;;;;2.80;2.30;;;22.50;61.50;;;;;;5050023;28;20477;-73
2023/10/17 03:53:29;;;;;;;3.53;2.70;;;22.50;61.50;;;;;;5049796;28;20471;-72
2023/10/17 03:56:00;;;;;;;2.93;2.63;;;22.40;61.50;;;;;;5059870;28;20478;-72
2023/10/17 03:58:43;;;;;;;2.40;2.20;;;22.40;61.50;;;;;;5050001;28;20463;-71
2023/10/17 04:01:13;;;;;;;4.37;2.60;;;22.40;61.50;;;;;;5053825;28;20492;-71
2023/10/17 04:03:42;;;;;;;2.60;2.40;;;22.50;61.50;;;;;;5048858;28;20538;-71
2023/10/17 04:06:21;;;;;;;3.23;2.70;;;22.40;61.50;;;;;;5054724;28;20453;-72
2023/10/17 04:08:50;;;;;;;2.17;2.07;;;22.50;61.50;;;;;;5050666;28;20449;-73
2023/10/17 04:11:25;;;;;;;2.83;2.63;;;22.50;61.50;;;;;;5048089;28;20940;-73
2023/10/17 04:13:57;;;;;;;2.13;1.93;;;22.50;61.50;;;;;;5033189;28;20483;-73
2023/10/17 04:16:33;;;;;;;2.60;2.20;;;22.50;61.50;;;;;;5043128;28;20457;-71
2023/10/17 04:19:04;;;;;;;3.00;2.23;;;22.50;61.50;;;;;;5044842;28;20475;-70
2023/10/17 04:21:36;;;;;;;2.40;2.07;;;22.60;61.50;;;;;;5044572;28;20962;-69
2023/10/17 04:24:06;;;;;;;3.13;2.70;;;22.60;61.50;;;;;;5050744;28;20457;-72
2023/10/17 04:26:35;;;;;;;2.40;2.20;;;22.60;61.40;;;;;;5049156;28;20458;-72
2023/10/17 04:29:18;;;;;;;2.10;2.00;;;22.60;61.30;;;;;;5061536;28;20969;-73
2023/10/17 04:31:47;;;;;;;3.03;2.10;;;22.70;61.20;;;;;;5042559;28;20463;-68
2023/10/17 04:34:18;;;;;;;2.10;2.00;;;22.70;61.10;;;;;;5044063;28;20466;-70
2023/10/17 04:36:46;;;;;;;2.53;2.33;;;22.70;61.10;;;;;;5056760;28;20497;-70
2023/10/17 04:39:19;;;;;;;2.43;2.23;;;22.70;61.00;;;;;;5047486;28;20988;-73
2023/10/17 04:42:06;;;;;;;2.13;1.93;;;22.70;61.00;;;;;;5043520;28;20459;-76
2023/10/17 04:44:36;;;;;;;3.77;1.90;;;22.70;61.10;;;;;;5049295;28;20793;-75
2023/10/17 04:47:26;;;;;;;2.97;2.70;;;22.70;61.10;;;;;;5046286;28;20478;-75
2023/10/17 04:49:54;;;;;;;3.20;2.20;;;22.70;61.20;;;;;;5039855;28;20462;-71
2023/10/17 04:52:29;;;;;;;2.60;2.40;;;22.70;61.30;;;;;;5037423;28;20517;-71
2023/10/17 04:55:04;;;;;;;2.80;2.23;;;22.70;61.40;;;;;;5043849;28;20453;-74
2023/10/17 05:00:43;;;;;;;2.43;2.23;;;22.70;61.60;;;;;;5034155;28;20544;-71
2023/10/17 05:03:27;;;;;;;2.30;2.10;;;22.70;61.70;;;;;;5043124;28;20484;-75
2023/10/17 05:06:18;;;;;;;2.73;2.13;;;22.70;61.70;;;;;;5043457;28;20681;-72
2023/10/17 05:09:12;;;;;;;2.17;1.90;;;22.70;61.90;;;;;;5044690;28;20479;-74
2023/10/17 06:18:32;;;;;;;2.60;2.40;;;22.50;62.60;;;;;;5040937;28;20461;-72
2023/10/17 06:21:07;;;;;;;2.90;2.27;;;22.50;62.60;;;;;;5040789;28;20460;-75
2023/10/17 06:32:07;;;;;;;3.27;2.13;;;22.60;63.10;;;;;;5037975;28;20995;-74
2023/10/17 06:34:34;;;;;;;3.13;2.37;;;22.60;63.10;;;;;;5048439;28;20493;-75
2023/10/17 06:37:07;;;;;;;2.00;1.90;;;22.60;63.10;;;;;;5032288;28;20475;-74
2023/10/17 06:39:46;;;;;;;2.63;2.40;;;22.60;63.00;;;;;;5041328;28;20461;-75
2023/10/17 06:42:14;;;;;;;2.60;2.13;;;22.60;62.90;;;;;;5039017;28;20463;-74
2023/10/17 06:47:31;;;;;;;4.23;2.53;;;22.60;62.80;;;;;;5033816;28;20521;-76
2023/10/17 06:50:17;;;;;;;2.73;2.33;;;22.70;62.70;;;;;;5049853;28;20950;-75
2023/10/17 06:53:01;;;;;;;3.23;2.27;;;22.70;62.70;;;;;;5050499;28;20471;-76
2023/10/17 06:55:38;;;;;;;2.27;2.17;;;22.70;62.70;;;;;;5046196;28;20508;-75
2023/10/17 06:58:14;;;;;;;4.10;2.03;;;22.70;62.70;;;;;;5044166;28;20462;-74
2023/10/17 07:00:49;;;;;;;2.40;2.13;;;22.70;62.60;;;;;;5043401;28;20500;-72
2023/10/17 07:03:24;;;;;;;3.40;2.07;;;22.70;62.60;;;;;;5051839;28;20552;-74
2023/10/17 07:05:55;;;;;;;1.97;1.87;;;22.70;62.50;;;;;;5037676;28;20493;-69
2023/10/17 07:08:24;;;;;;;1.97;1.87;;;22.70;62.60;;;;;;5040182;28;20511;-75
2023/10/17 07:11:02;;;;;;;1.80;1.70;;;22.70;62.50;;;;;;5043702;28;20471;-75
2023/10/17 07:13:54;;;;;;;4.50;2.30;;;22.70;62.50;;;;;;5038032;28;20463;-74
2023/10/17 07:16:31;;;;;;;6.67;2.67;;;22.70;62.40;;;;;;5043845;28;20470;-73
2023/10/17 07:19:46;;;;;;;2.83;2.37;;;22.70;62.40;;;;;;5057892;28;21035;-75
2023/10/17 07:22:05;;;;;;;3.13;2.07;;;22.70;62.50;;;;;;5042713;28;20463;-71
2023/10/17 07:24:35;;;;;;;2.20;2.00;;;22.70;62.40;;;;;;5041910;28;20466;-75
2023/10/17 07:27:11;;;;;;;1.90;1.80;;;22.70;62.40;;;;;;5045539;28;20507;-72
2023/10/17 07:29:45;;;;;;;3.23;2.07;;;22.70;62.40;;;;;;5038341;28;20489;-76
2023/10/17 07:32:17;;;;;;;2.40;2.20;;;22.70;62.30;;;;;;5046577;28;20515;-75
2023/10/17 07:34:45;;;;;;;2.63;2.43;;;22.70;62.40;;;;;;5045193;28;20588;-75
2023/10/17 07:37:22;;;;;;;3.30;2.30;;;22.70;62.30;;;;;;5047966;28;24090;-76
2023/10/17 07:40:16;;;;;;;1.90;1.80;;;22.80;62.30;;;;;;5045364;28;20461;-73
2023/10/17 07:42:46;;;;;;;4.00;2.27;;;22.80;62.20;;;;;;5034567;28;20487;-75
2023/10/17 07:45:15;;;;;;;2.50;2.30;;;22.80;62.30;;;;;;5050619;28;20463;-75
2023/10/17 07:47:51;;;;;;;2.43;2.20;;;22.80;62.20;;;;;;5037920;28;20586;-72
2023/10/17 07:50:20;;;;;;;2.50;2.30;;;22.80;62.20;;;;;;5044143;28;20519;-74
2023/10/17 07:52:51;;;;;;;2.13;1.73;;;22.80;62.20;;;;;;5037727;28;20490;-75
2023/10/17 07:55:22;;;;;;;2.27;2.17;;;22.80;62.20;;;;;;5050157;28;20459;-75
2023/10/17 07:58:06;;;;;;;1.80;1.70;;;22.80;62.10;;;;;;5045351;28;20461;-74
2023/10/17 08:00:35;;;;;;;3.80;2.17;;;22.80;62.00;;;;;;5040386;28;20498;-74
2023/10/17 08:03:09;;;;;;;2.37;2.17;;;22.80;62.00;;;;;;5043726;28;20463;-74
2023/10/17 08:05:44;;;;;;;3.30;1.90;;;22.80;62.00;;;;;;5044252;28;20963;-72
2023/10/17 08:08:14;;;;;;;3.53;2.27;;;22.80;62.00;;;;;;5044423;28;20483;-70
2023/10/17 08:10:45;;;;;;;1.60;1.50;;;22.80;62.00;;;;;;5048032;28;20520;-70
2023/10/17 08:13:15;;;;;;;1.90;1.80;;;22.80;61.90;;;;;;5047043;28;20462;-75
2023/10/17 08:15:52;;;;;;;2.20;2.10;;;22.80;61.90;;;;;;5048364;28;20451;-72
2023/10/17 08:18:24;;;;;;;1.90;1.77;;;22.80;61.90;;;;;;5045334;28;20454;-75
2023/10/17 08:23:46;;;;;;;2.37;2.27;;;22.90;61.90;;;;;;4988590;28;20481;-71
2023/10/17 08:26:17;;;;;;;2.30;2.10;;;22.90;61.80;;;;;;5046588;28;20462;-74
2023/10/17 08:28:50;;;;;;;2.97;2.20;;;22.90;61.80;;;;;;5042916;28;20479;-76
2023/10/17 08:31:22;;;;;;;2.43;2.23;;;22.90;61.70;;;;;;5044959;28;20454;-75
2023/10/17 08:34:08;;;;;;;2.37;1.83;;;22.90;61.70;;;;;;5048197;28;20810;-74
2023/10/17 08:36:42;;;;;;;3.63;2.00;;;22.90;61.60;;;;;;5037572;28;20463;-75
2023/10/17 08:39:51;;;;;;;2.77;2.20;;;22.90;61.60;;;;;;5039719;28;20553;-72
2023/10/17 08:42:30;;;;;;;2.10;2.00;;;22.90;61.50;;;;;;5043727;28;20583;-72
2023/10/17 08:45:04;;;;;;;1.70;1.60;;;22.90;61.40;;;;;;5042278;28;20466;-68
2023/10/17 08:47:32;;;;;;;2.20;2.00;;;22.90;61.40;;;;;;5042181;28;20466;-77
2023/10/17 08:50:05;;;;;;;1.70;1.60;;;22.90;61.40;;;;;;5039243;28;21398;-73
2023/10/17 08:52:36;;;;;;;2.13;2.03;;;22.90;61.40;;;;;;5038542;28;20452;-70
2023/10/17 08:55:05;;;;;;;2.07;1.90;;;22.90;61.40;;;;;;5042554;28;20548;-74
2023/10/17 08:57:33;;;;;;;2.97;2.37;;;22.90;61.40;;;;;;5039229;28;20455;-73
2023/10/17 09:00:23;;;;;;;1.97;1.87;;;22.90;61.40;;;;;;5034664;28;20514;-82
2023/10/17 09:03:02;;;;;;;2.10;2.00;;;22.90;61.30;;;;;;5045649;28;20977;-81
2023/10/17 09:05:32;;;;;;;1.80;1.70;;;22.90;61.40;;;;;;5034777;28;21108;-77
2023/10/17 09:08:03;;;;;;;2.63;2.43;;;22.90;61.40;;;;;;5040466;28;20485;-77
2023/10/17 09:10:37;;;;;;;2.40;2.20;;;22.90;61.40;;;;;;5042759;28;20468;-80
2023/10/17 09:16:10;;;;;;;2.03;1.93;;;22.90;61.30;;;;;;5042259;28;20569;-79
2023/10/17 09:18:42;;;;;;;2.30;2.10;;;22.90;61.30;;;;;;5045425;28;20470;-77
2023/10/17 09:21:13;;;;;;;2.00;1.90;;;22.90;61.30;;;;;;5042780;28;20454;-80
2023/10/17 09:23:42;;;;;;;2.20;2.00;;;22.90;61.30;;;;;;5049032;28;20860;-80
2023/10/17 09:26:11;;;;;;;2.40;2.20;;;22.90;61.30;;;;;;5039883;28;20474;-78
2023/10/17 09:28:40;;;;;;;1.80;1.70;;;22.90;61.30;;;;;;5049363;28;20466;-80
2023/10/17 09:31:12;;;;;;;2.20;2.10;;;22.90;61.40;;;;;;5048826;28;20473;-75
2023/10/17 09:33:44;;;;;;;2.93;2.47;;;22.90;61.30;;;;;;5043504;28;20577;-78
2023/10/17 09:36:17;;;;;;;2.13;1.80;;;22.90;61.40;;;;;;5041505;28;20468;-81
2023/10/17 09:38:47;;;;;;;2.20;2.10;;;22.90;61.40;;;;;;5047072;28;20463;-78
2023/10/17 09:41:18;;;;;;;2.83;2.63;;;23.00;61.30;;;;;;5055607;28;20589;-79
2023/10/17 09:43:49;;;;;;;2.70;2.40;;;23.00;61.30;;;;;;5040357;28;20470;-79
2023/10/17 09:46:21;;;;;;;2.30;2.20;;;23.00;61.30;;;;;;5047531;28;20962;-79
2023/10/17 09:48:52;;;;;;;3.87;2.10;;;23.00;61.30;;;;;;5039414;28;20459;-78
2023/10/17 09:51:22;;;;;;;2.00;1.90;;;23.00;61.20;;;;;;5043921;28;20974;-78
2023/10/17 09:53:53;;;;;;;1.70;1.60;;;23.00;61.20;;;;;;5042072;28;20467;-78
2023/10/17 09:56:28;;;;;;;4.40;2.10;;;23.00;61.10;;;;;;5042346;28;20977;-76
2023/10/17 09:59:06;;;;;;;2.43;2.20;;;23.00;61.10;;;;;;5040988;28;20476;-79
2023/10/17 10:01:37;;;;;;;2.70;2.50;;;23.00;61.10;;;;;;5044593;28;20552;-78
2023/10/17 10:04:07;;;;;;;2.87;2.33;;;23.00;61.10;;;;;;5043410;28;20512;-78
2023/10/17 10:06:36;;;;;;;2.67;2.17;;;23.10;61.00;;;;;;5039950;28;20460;-80
2023/10/17 10:09:26;;;;;;;2.87;2.37;;;23.10;61.00;;;;;;5042013;28;20499;-80
2023/10/17 10:11:58;;;;;;;2.03;1.93;;;23.00;61.00;;;;;;5042342;28;20463;-76
2023/10/17 10:14:40;;;;;;;2.20;2.10;;;23.00;61.00;;;;;;5043294;28;20447;-78
2023/10/17 10:17:11;;;;;;;2.10;1.90;;;23.00;60.90;;;;;;5039922;28;20572;-76
2023/10/17 10:19:59;;;;;;;3.10;2.10;;;23.00;61.00;;;;;;5045399;28;20474;-79
2023/10/17 10:22:52;;;;;;;2.00;1.90;;;23.00;61.00;;;;;;5043689;28;20501;-80
2023/10/17 10:25:22;;;;;;;2.13;2.00;;;23.00;61.00;;;;;;5040528;28;20464;-78
2023/10/17 10:28:40;;;;;;;2.67;1.97;;;23.00;61.00;;;;;;5038155;28;20478;-79
2023/10/17 10:31:38;;;;;;;2.30;2.17;;;23.00;61.00;;;;;;5041121;28;20844;-75
2023/10/17 10:34:09;;;;;;;2.43;2.20;;;23.00;61.00;;;;;;5045708;28;20463;-79
2023/10/17 10:36:39;;;;;;;2.67;2.10;;;23.00;61.00;;;;;;5042293;28;20470;-78
2023/10/17 10:39:12;;;;;;;2.43;2.23;;;23.00;60.90;;;;;;5047252;28;20463;-79
2023/10/17 10:41:57;;;;;;;2.10;2.00;;;23.00;60.90;;;;;;5043540;28;20462;-77
2023/10/17 10:44:26;;;;;;;2.47;2.20;;;23.00;61.00;;;;;;5032132;28;20479;-77
2023/10/17 10:46:55;;;;;;;2.00;1.80;;;23.00;61.00;;;;;;5046989;28;20860;-81
2023/10/17 10:49:30;;;;;;;2.43;2.23;;;23.00;61.10;;;;;;5074304;28;20980;-79
2023/10/17 10:51:59;;;;;;;2.23;2.00;;;23.00;61.10;;;;;;5048011;28;20512;-82
2023/10/17 10:54:50;;;;;;;2.27;2.10;;;23.00;61.10;;;;;;5048877;28;20463;-78
2023/10/17 10:57:28;;;;;;;2.50;2.40;;;23.00;61.10;;;;;;5046171;28;20954;-78
2023/10/17 10:59:57;;;;;;;2.43;2.23;;;23.00;61.10;;;;;;5049111;28;20478;-77
2023/10/17 11:02:25;;;;;;;2.17;2.00;;;23.00;61.10;;;;;;5042983;28;20498;-78
2023/10/17 11:04:56;;;;;;;2.50;2.30;;;23.00;61.00;;;;;;5040238;28;20475;-77
2023/10/17 11:07:25;;;;;;;1.83;1.73;;;23.10;61.00;;;;;;5043935;28;20470;-74
2023/10/17 11:10:03;;;;;;;2.23;2.13;;;23.10;61.00;;;;;;5041894;28;20539;-76
2023/10/17 11:12:32;;;;;;;3.33;2.33;;;23.10;61.10;;;;;;5046615;28;20512;-76
2023/10/17 11:15:14;;;;;;;2.00;1.90;;;23.10;61.00;;;;;;5043358;28;21022;-76
2023/10/17 11:17:43;;;;;;;2.53;2.33;;;23.10;60.90;;;;;;5044098;28;20463;-75
2023/10/17 11:20:16;;;;;;;2.10;2.00;;;23.10;60.90;;;;;;5039818;28;20530;-76
2023/10/17 11:22:44;;;;;;;2.30;2.20;;;23.10;60.70;;;;;;5040553;28;20513;-76
2023/10/17 11:25:21;;;;;;;2.17;1.87;;;23.10;60.60;;;;;;5040478;28;20459;-77
2023/10/17 11:27:56;;;;;;;1.87;1.73;;;23.10;60.60;;;;;;5039320;28;20835;-77
2023/10/17 11:30:34;;;;;;;1.87;1.77;;;23.10;60.50;;;;;;5039710;28;20550;-76
2023/10/17 11:33:04;;;;;;;2.40;2.20;;;23.10;60.50;;;;;;5045829;28;20583;-76
2023/10/17 11:35:36;;;;;;;1.93;1.83;;;23.10;60.50;;;;;;5043067;28;20498;-75
2023/10/17 11:38:07;;;;;;;2.33;2.13;;;23.10;60.50;;;;;;5045907;28;20491;-74
2023/10/17 11:40:44;;;;;;;2.67;2.47;;;23.10;60.60;;;;;;5037849;28;20465;-74
2023/10/17 11:43:20;;;;;;;2.00;1.90;;;23.10;60.60;;;;;;5040929;28;20464;-77
2023/10/17 11:45:49;;;;;;;2.43;2.23;;;23.00;60.60;;;;;;5032282;28;20460;-76
2023/10/17 11:48:29;;;;;;;2.27;2.10;;;23.00;60.60;;;;;;5043548;28;20474;-77
2023/10/17 11:51:16;;;;;;;2.87;1.80;;;23.00;60.70;;;;;;5044614;28;20982;-77
2023/10/17 11:54:05;;;;;;;2.30;2.10;;;23.00;60.70;;;;;;5035022;28;20450;-76
2023/10/17 11:56:45;;;;;;;2.67;2.47;;;22.90;60.80;;;;;;5060199;28;20201;-75
2023/10/17 11:59:17;;;;;;;2.70;2.37;;;22.90;61.00;;;;;;5042326;28;20517;-75
2023/10/17 12:01:46;;;;;;;2.70;2.50;;;22.90;61.10;;;;;;5044716;28;20518;-77
2023/10/17 12:04:16;;;;;;;2.47;2.27;;;23.00;61.10;;;;;;5041926;28;20467;-76
2023/10/17 12:06:48;;;;;;;2.40;2.20;;;23.00;61.10;;;;;;5043024;28;20474;-76
2023/10/17 12:09:22;;;;;;;2.60;2.10;;;23.00;61.10;;;;;;5037711;28;20497;-78
2023/10/17 12:11:53;;;;;;;3.60;2.43;;;23.10;61.00;;;;;;5038793;28;20498;-78
2023/10/17 12:14:23;;;;;;;2.97;2.27;;;23.10;61.00;;;;;;5042577;28;20478;-79
2023/10/17 12:16:54;;;;;;;2.33;2.13;;;23.10;60.90;;;;;;5038461;28;20464;-76
2023/10/17 12:19:26;;;;;;;2.03;1.93;;;23.10;60.90;;;;;;5040189;28;20459;-77
2023/10/17 12:22:00;;;;;;;4.13;1.80;;;23.20;60.90;;;;;;5041272;28;20547;-76
2023/10/17 12:24:31;;;;;;;2.77;2.47;;;23.20;60.90;;;;;;5042140;28;20456;-78
2023/10/17 12:26:59;;;;;;;3.00;2.43;;;23.30;60.90;;;;;;5044716;28;20951;-75
2023/10/17 12:29:29;;;;;;;4.23;2.60;;;23.30;60.70;;;;;;5048896;28;21048;-77
2023/10/17 12:31:59;;;;;;;3.07;2.87;;;23.30;60.70;;;;;;5043805;28;20567;-78
2023/10/17 12:34:28;;;;;;;2.90;2.30;;;23.30;60.70;;;;;;5044142;28;20460;-79
2023/10/17 12:37:03;;;;;;;3.20;2.47;;;23.30;60.70;;;;;;5045473;28;20460;-76
2023/10/17 12:39:32;;;;;;;2.27;2.07;;;23.30;60.70;;;;;;5041211;28;20462;-80
2023/10/17 12:42:01;;;;;;;2.50;2.40;;;23.30;60.60;;;;;;5041074;28;20549;-79
2023/10/17 12:44:31;;;;;;;2.90;2.70;;;23.40;60.60;;;;;;5035814;28;20518;-75
2023/10/17 12:47:00;;;;;;;2.63;2.00;;;23.40;60.60;;;;;;5036346;28;20486;-77
2023/10/17 12:49:29;;;;;;;2.30;2.10;;;23.40;60.60;;;;;;5036090;28;20455;-77
2023/10/17 12:52:00;;;;;;;3.77;2.50;;;23.40;60.60;;;;;;5035930;28;20519;-74
2023/10/17 12:54:29;;;;;;;2.50;2.30;;;23.40;60.60;;;;;;5042158;28;20846;-78
2023/10/17 12:56:57;;;;;;;3.23;2.90;;;23.40;60.50;;;;;;5039737;28;20546;-77
2023/10/17 12:59:25;;;;;;;2.77;2.57;;;23.40;60.40;;;;;;5042820;28;20464;-78
2023/10/17 13:01:54;;;;;;;2.93;2.70;;;23.50;60.30;;;;;;5038917;28;20511;-78
2023/10/17 13:04:23;;;;;;;3.37;2.43;;;23.50;60.40;;;;;;5044041;28;20475;-77
2023/10/17 13:06:53;;;;;;;2.27;2.10;;;23.50;60.20;;;;;;5053729;28;20470;-76
2023/10/17 13:09:23;;;;;;;3.13;2.93;;;23.50;60.10;;;;;;5034121;28;20467;-77
2023/10/17 13:11:51;;;;;;;2.63;2.03;;;23.50;60.10;;;;;;5038435;28;20554;-77
2023/10/17 13:14:20;;;;;;;2.50;2.30;;;23.50;60.10;;;;;;5031292;28;20493;-77
2023/10/17 13:16:48;;;;;;;2.40;2.20;;;23.50;60.10;;;;;;5032025;28;20472;-77
2023/10/17 13:19:18;;;;;;;3.07;2.23;;;23.40;60.10;;;;;;5032218;28;20833;-78
2023/10/17 13:21:46;;;;;;;2.60;2.40;;;23.40;60.10;;;;;;5030711;28;20443;-76
2023/10/17 13:24:15;;;;;;;2.20;2.00;;;23.40;60.10;;;;;;5037253;28;20538;-76
2023/10/17 13:26:46;;;;;;;3.03;2.83;;;23.50;60.10;;;;;;5037152;28;20821;-77
2023/10/17 13:29:14;;;;;;;2.77;2.53;;;23.50;60.10;;;;;;5034953;28;20468;-78
2023/10/17 13:31:42;;;;;;;2.50;2.30;;;23.50;60.10;;;;;;5041044;28;20467;-77
2023/10/17 13:34:10;;;;;;;2.33;2.20;;;23.50;60.10;;;;;;5041333;28;20558;-77
2023/10/17 13:36:39;;;;;;;2.40;2.20;;;23.50;60.00;;;;;;5036272;28;20458;-76
2023/10/17 13:39:08;;;;;;;2.90;2.70;;;23.50;60.10;;;;;;5041528;28;20460;-78
2023/10/17 13:41:38;;;;;;;2.73;2.53;;;23.50;60.10;;;;;;5036520;28;20465;-75
2023/10/17 13:44:11;;;;;;;2.33;2.23;;;23.50;60.10;;;;;;5038835;28;20453;-78
2023/10/17 13:46:40;;;;;;;3.17;2.53;;;23.50;60.10;;;;;;5036076;28;20466;-80
2023/10/17 13:49:08;;;;;;;3.60;1.93;;;23.60;60.00;;;;;;5040300;28;20466;-78
2023/10/17 13:51:38;;;;;;;2.50;2.30;;;23.60;59.90;;;;;;5038429;28;20507;-79
2023/10/17 13:54:06;;;;;;;2.50;2.07;;;23.60;59.90;;;;;;5041517;28;20465;-78
2023/10/17 13:56:34;;;;;;;3.10;2.80;;;23.60;59.80;;;;;;5032399;28;21270;-77
2023/10/17 13:59:04;;;;;;;4.13;3.20;;;23.60;59.80;;;;;;5033971;28;20554;-70
2023/10/17 14:01:41;;;;;;;2.87;2.63;;;23.60;59.90;;;;;;5037516;28;20488;-70
2023/10/17 14:04:10;;;;;;;3.53;2.67;;;23.70;60.10;;;;;;5043385;28;20554;-70
2023/10/17 14:06:39;;;;;;;4.43;2.83;;;23.70;60.30;;;;;;5059060;28;20519;-69
2023/10/17 14:09:14;;;;;;;2.97;2.70;;;23.70;60.40;;;;;;5039455;28;21024;-70
2023/10/17 14:11:46;;;;;;;3.43;2.60;;;23.70;60.50;;;;;;5053087;28;20475;-70
2023/10/17 14:14:15;;;;;;;3.60;3.30;;;23.70;60.60;;;;;;5041003;28;20540;-70
2023/10/17 14:16:50;;;;;;;2.47;2.10;;;23.70;60.60;;;;;;5045950;28;20995;-70
2023/10/17 14:19:28;;;;;;;2.90;2.20;;;23.70;60.60;;;;;;5047281;28;20493;-70
2023/10/17 14:22:04;;;;;;;5.93;3.40;;;23.70;60.60;;;;;;5045101;28;20552;-70
2023/10/17 14:24:49;;;;;;;4.53;2.70;;;23.70;60.60;;;;;;5050555;28;20472;-71
2023/10/17 14:27:20;;;;;;;2.90;2.70;;;23.70;60.70;;;;;;5047594;28;20948;-70
2023/10/17 14:29:49;;;;;;;2.57;2.37;;;23.70;60.80;;;;;;5042974;28;20465;-70
2023/10/17 14:32:20;;;;;;;3.00;2.50;;;23.70;60.90;;;;;;5045113;28;20510;-69
2023/10/17 14:34:49;;;;;;;2.87;2.37;;;23.70;60.80;;;;;;5047833;28;20552;-70
2023/10/17 14:37:18;;;;;;;7.70;2.40;;;23.70;61.00;;;;;;5047814;28;20497;-69
2023/10/17 14:39:46;;;;;;;3.00;2.70;;;23.70;61.00;;;;;;5050936;28;20462;-69
2023/10/17 14:42:17;;;;;;;2.83;2.63;;;23.70;61.00;;;;;;5043930;28;20564;-70
2023/10/17 14:44:46;;;;;;;2.57;2.37;;;23.70;61.00;;;;;;5049247;28;20555;-70
2023/10/17 14:47:16;;;;;;;2.60;2.40;;;23.70;61.10;;;;;;5042270;28;20470;-70
2023/10/17 14:49:48;;;;;;;3.03;2.70;;;23.70;61.00;;;;;;5048811;28;20473;-70